sensor_id;sensor_type;location;lat;lon;timestamp;P1;durP1;ratioP1;P2;durP2;ratioP2
75303;SDS011;64042;50.916;6.988;2023-01-05T00:01:14;0.98;;;0.63;;
75303;SDS011;64042;50.916;6.988;2023-01-05T00:03:39;1.13;;;0.70;;
75303;SDS011;64042;50.916;6.988;2023-01-05T00:06:14;2.28;;;0.47;;
75303;SDS011;64042;50.916;6.988;2023-01-05T00:08:44;2.05;;;1.92;;
75303;SDS011;64042;50.916;6.988;2023-01-05T00:11:11;1.67;;;0.68;;
75303;SDS011;64042;50.916;6.988;2023-01-05T00:13:56;1.73;;;0.50;;
75303;SDS011;64042;50.916;6.988;2023-01-05T00:16:40;1.77;;;1.23;;
75303;SDS011;64042;50.916;6.988;2023-01-05T00:19:24;1.00;;;0.75;;
75303;SDS011;64042;50.916;6.988;2023-01-05T00:22:21;0.50;;;0.40;;
75303;SDS011;64042;50.916;6.988;2023-01-05T00:24:55;0.90;;;0.73;;
75303;SDS011;64042;50.916;6.988;2023-01-05T00:27:28;1.02;;;0.47;;
75303;SDS011;64042;50.916;6.988;2023-01-05T00:29:53;0.98;;;0.88;;
75303;SDS011;64042;50.916;6.988;2023-01-05T00:32:19;1.95;;;0.63;;
75303;SDS011;64042;50.916;6.988;2023-01-05T00:34:44;1.70;;;0.45;;
75303;SDS011;64042;50.916;6.988;2023-01-05T00:37:10;1.10;;;0.88;;
75303;SDS011;64042;50.916;6.988;2023-01-05T00:39:35;0.88;;;0.73;;
75303;SDS011;64042;50.916;6.988;2023-01-05T00:42:00;1.50;;;0.80;;
75303;SDS011;64042;50.916;6.988;2023-01-05T00:44:26;1.00;;;0.50;;
75303;SDS011;64042;50.916;6.988;2023-01-05T00:46:51;1.10;;;0.80;;
75303;SDS011;64042;50.916;6.988;2023-01-05T00:49:16;1.08;;;0.52;;
75303;SDS011;64042;50.916;6.988;2023-01-05T00:51:41;0.60;;;0.60;;
75303;SDS011;64042;50.916;6.988;2023-01-05T00:54:07;0.52;;;0.50;;
75303;SDS011;64042;50.916;6.988;2023-01-05T00:56:32;0.90;;;0.82;;
75303;SDS011;64042;50.916;6.988;2023-01-05T00:58:57;0.83;;;0.40;;
75303;SDS011;64042;50.916;6.988;2023-01-05T01:01:23;0.77;;;0.77;;
75303;SDS011;64042;50.916;6.988;2023-01-05T01:03:48;1.20;;;0.60;;
75303;SDS011;64042;50.916;6.988;2023-01-05T01:06:14;1.17;;;0.65;;
75303;SDS011;64042;50.916;6.988;2023-01-05T01:08:39;2.35;;;0.75;;
75303;SDS011;64042;50.916;6.988;2023-01-05T01:11:05;1.43;;;0.60;;
75303;SDS011;64042;50.916;6.988;2023-01-05T01:13:31;1.20;;;0.45;;
75303;SDS011;64042;50.916;6.988;2023-01-05T01:15:56;0.63;;;0.60;;
75303;SDS011;64042;50.916;6.988;2023-01-05T01:18:22;1.05;;;0.82;;
75303;SDS011;64042;50.916;6.988;2023-01-05T01:20:47;1.00;;;0.40;;
75303;SDS011;64042;50.916;6.988;2023-01-05T01:23:13;1.70;;;0.82;;
75303;SDS011;64042;50.916;6.988;2023-01-05T01:25:38;1.33;;;1.17;;
75303;SDS011;64042;50.916;6.988;2023-01-05T01:28:04;1.00;;;0.57;;
75303;SDS011;64042;50.916;6.988;2023-01-05T01:30:29;1.58;;;1.48;;
75303;SDS011;64042;50.916;6.988;2023-01-05T01:32:54;0.63;;;0.63;;
75303;SDS011;64042;50.916;6.988;2023-01-05T01:35:19;1.63;;;0.80;;
75303;SDS011;64042;50.916;6.988;2023-01-05T01:37:45;2.10;;;0.70;;
75303;SDS011;64042;50.916;6.988;2023-01-05T01:40:10;1.20;;;1.03;;
75303;SDS011;64042;50.916;6.988;2023-01-05T01:42:37;0.60;;;0.55;;
75303;SDS011;64042;50.916;6.988;2023-01-05T01:45:16;1.27;;;0.60;;
75303;SDS011;64042;50.916;6.988;2023-01-05T01:47:48;0.70;;;0.52;;
75303;SDS011;64042;50.916;6.988;2023-01-05T01:50:20;1.73;;;0.93;;
75303;SDS011;64042;50.916;6.988;2023-01-05T01:52:48;1.50;;;0.52;;
75303;SDS011;64042;50.916;6.988;2023-01-05T01:55:15;1.15;;;0.55;;
75303;SDS011;64042;50.916;6.988;2023-01-05T01:57:41;0.43;;;0.43;;
75303;SDS011;64042;50.916;6.988;2023-01-05T02:00:08;0.85;;;0.75;;
75303;SDS011;64042;50.916;6.988;2023-01-05T02:02:34;0.95;;;0.80;;
75303;SDS011;64042;50.916;6.988;2023-01-05T02:05:01;1.50;;;1.17;;
75303;SDS011;64042;50.916;6.988;2023-01-05T02:07:29;1.08;;;0.98;;
75303;SDS011;64042;50.916;6.988;2023-01-05T02:09:57;1.70;;;1.08;;
75303;SDS011;64042;50.916;6.988;2023-01-05T02:12:29;1.52;;;1.42;;
75303;SDS011;64042;50.916;6.988;2023-01-05T02:18:22;1.83;;;1.00;;
75303;SDS011;64042;50.916;6.988;2023-01-05T02:31:23;1.42;;;1.23;;
75303;SDS011;64042;50.916;6.988;2023-01-05T02:37:12;1.77;;;0.55;;
75303;SDS011;64042;50.916;6.988;2023-01-05T02:39:48;1.00;;;0.52;;
75303;SDS011;64042;50.916;6.988;2023-01-05T02:42:27;0.85;;;0.63;;
75303;SDS011;64042;50.916;6.988;2023-01-05T02:44:53;1.83;;;0.77;;
75303;SDS011;64042;50.916;6.988;2023-01-05T02:49:52;1.08;;;0.55;;
75303;SDS011;64042;50.916;6.988;2023-01-05T02:52:20;1.83;;;1.17;;
75303;SDS011;64042;50.916;6.988;2023-01-05T02:54:48;0.85;;;0.77;;
75303;SDS011;64042;50.916;6.988;2023-01-05T02:57:21;1.92;;;0.93;;
75303;SDS011;64042;50.916;6.988;2023-01-05T03:00:10;1.10;;;0.88;;
75303;SDS011;64042;50.916;6.988;2023-01-05T03:02:44;1.98;;;0.90;;
75303;SDS011;64042;50.916;6.988;2023-01-05T03:05:14;2.17;;;1.20;;
75303;SDS011;64042;50.916;6.988;2023-01-05T03:10:06;0.60;;;0.60;;
75303;SDS011;64042;50.916;6.988;2023-01-05T03:12:51;1.10;;;0.50;;
75303;SDS011;64042;50.916;6.988;2023-01-05T03:15:38;0.90;;;0.90;;
75303;SDS011;64042;50.916;6.988;2023-01-05T03:18:04;1.75;;;1.10;;
75303;SDS011;64042;50.916;6.988;2023-01-05T03:20:32;1.73;;;0.77;;
75303;SDS011;64042;50.916;6.988;2023-01-05T03:22:59;0.88;;;0.85;;
75303;SDS011;64042;50.916;6.988;2023-01-05T03:25:44;2.05;;;1.05;;
75303;SDS011;64042;50.916;6.988;2023-01-05T03:28:29;1.20;;;1.10;;
75303;SDS011;64042;50.916;6.988;2023-01-05T03:31:21;1.33;;;0.93;;
75303;SDS011;64042;50.916;6.988;2023-01-05T03:37:03;1.58;;;0.68;;
75303;SDS011;64042;50.916;6.988;2023-01-05T03:39:32;1.13;;;0.95;;
75303;SDS011;64042;50.916;6.988;2023-01-05T03:41:59;1.45;;;1.02;;
75303;SDS011;64042;50.916;6.988;2023-01-05T03:44:25;1.08;;;1.00;;
75303;SDS011;64042;50.916;6.988;2023-01-05T03:46:50;1.25;;;1.10;;
75303;SDS011;64042;50.916;6.988;2023-01-05T03:49:16;1.25;;;0.77;;
75303;SDS011;64042;50.916;6.988;2023-01-05T03:51:41;1.08;;;0.68;;
75303;SDS011;64042;50.916;6.988;2023-01-05T03:54:07;0.98;;;0.60;;
75303;SDS011;64042;50.916;6.988;2023-01-05T03:56:32;1.30;;;0.80;;
75303;SDS011;64042;50.916;6.988;2023-01-05T03:58:57;2.03;;;0.67;;
75303;SDS011;64042;50.916;6.988;2023-01-05T04:01:23;1.80;;;1.13;;
75303;SDS011;64042;50.916;6.988;2023-01-05T04:03:48;1.35;;;0.93;;
75303;SDS011;64042;50.916;6.988;2023-01-05T04:06:13;1.30;;;0.90;;
75303;SDS011;64042;50.916;6.988;2023-01-05T04:08:39;1.23;;;1.10;;
75303;SDS011;64042;50.916;6.988;2023-01-05T04:11:10;1.63;;;0.70;;
75303;SDS011;64042;50.916;6.988;2023-01-05T04:13:43;1.70;;;0.95;;
75303;SDS011;64042;50.916;6.988;2023-01-05T04:16:08;1.88;;;0.68;;
75303;SDS011;64042;50.916;6.988;2023-01-05T04:18:34;0.98;;;0.60;;
75303;SDS011;64042;50.916;6.988;2023-01-05T04:20:59;1.38;;;0.65;;
75303;SDS011;64042;50.916;6.988;2023-01-05T04:23:24;1.60;;;1.13;;
75303;SDS011;64042;50.916;6.988;2023-01-05T04:25:50;1.67;;;1.23;;
75303;SDS011;64042;50.916;6.988;2023-01-05T04:28:15;1.93;;;0.70;;
75303;SDS011;64042;50.916;6.988;2023-01-05T04:30:44;0.47;;;0.40;;
75303;SDS011;64042;50.916;6.988;2023-01-05T04:33:10;1.10;;;1.00;;
75303;SDS011;64042;50.916;6.988;2023-01-05T04:35:35;1.58;;;0.73;;
75303;SDS011;64042;50.916;6.988;2023-01-05T04:38:00;1.23;;;1.13;;
75303;SDS011;64042;50.916;6.988;2023-01-05T04:40:26;2.17;;;1.33;;
75303;SDS011;64042;50.916;6.988;2023-01-05T04:42:51;1.38;;;1.00;;
75303;SDS011;64042;50.916;6.988;2023-01-05T04:45:16;2.00;;;1.48;;
75303;SDS011;64042;50.916;6.988;2023-01-05T04:47:42;0.82;;;0.63;;
75303;SDS011;64042;50.916;6.988;2023-01-05T04:50:07;1.67;;;1.58;;
75303;SDS011;64042;50.916;6.988;2023-01-05T04:52:33;1.58;;;1.35;;
75303;SDS011;64042;50.916;6.988;2023-01-05T04:54:58;1.30;;;1.20;;
75303;SDS011;64042;50.916;6.988;2023-01-05T04:57:24;1.83;;;1.73;;
75303;SDS011;64042;50.916;6.988;2023-01-05T04:59:49;1.63;;;0.70;;
75303;SDS011;64042;50.916;6.988;2023-01-05T05:02:14;1.07;;;0.67;;
75303;SDS011;64042;50.916;6.988;2023-01-05T05:04:39;0.80;;;0.52;;
75303;SDS011;64042;50.916;6.988;2023-01-05T05:07:05;0.90;;;0.80;;
75303;SDS011;64042;50.916;6.988;2023-01-05T05:09:31;1.30;;;1.15;;
75303;SDS011;64042;50.916;6.988;2023-01-05T05:11:56;1.17;;;0.90;;
75303;SDS011;64042;50.916;6.988;2023-01-05T05:14:21;2.72;;;1.25;;
75303;SDS011;64042;50.916;6.988;2023-01-05T05:16:46;4.78;;;0.77;;
75303;SDS011;64042;50.916;6.988;2023-01-05T05:19:12;1.13;;;1.00;;
75303;SDS011;64042;50.916;6.988;2023-01-05T05:21:37;1.10;;;1.05;;
75303;SDS011;64042;50.916;6.988;2023-01-05T05:24:02;1.37;;;0.73;;
75303;SDS011;64042;50.916;6.988;2023-01-05T05:26:28;1.83;;;1.00;;
75303;SDS011;64042;50.916;6.988;2023-01-05T05:28:53;0.90;;;0.90;;
75303;SDS011;64042;50.916;6.988;2023-01-05T05:31:18;1.10;;;0.73;;
75303;SDS011;64042;50.916;6.988;2023-01-05T05:33:43;1.48;;;1.38;;
75303;SDS011;64042;50.916;6.988;2023-01-05T05:36:09;1.83;;;0.85;;
75303;SDS011;64042;50.916;6.988;2023-01-05T05:38:34;1.80;;;1.27;;
75303;SDS011;64042;50.916;6.988;2023-01-05T05:40:59;1.10;;;0.90;;
75303;SDS011;64042;50.916;6.988;2023-01-05T05:43:25;1.10;;;0.97;;
75303;SDS011;64042;50.916;6.988;2023-01-05T05:45:50;1.63;;;1.27;;
75303;SDS011;64042;50.916;6.988;2023-01-05T05:48:15;1.27;;;0.73;;
75303;SDS011;64042;50.916;6.988;2023-01-05T05:50:42;1.48;;;1.02;;
75303;SDS011;64042;50.916;6.988;2023-01-05T05:53:08;1.38;;;1.15;;
75303;SDS011;64042;50.916;6.988;2023-01-05T05:55:33;1.90;;;1.03;;
75303;SDS011;64042;50.916;6.988;2023-01-05T05:57:58;1.13;;;1.10;;
75303;SDS011;64042;50.916;6.988;2023-01-05T06:00:24;2.42;;;1.05;;
75303;SDS011;64042;50.916;6.988;2023-01-05T06:02:49;1.05;;;0.70;;
75303;SDS011;64042;50.916;6.988;2023-01-05T06:05:14;3.90;;;1.17;;
75303;SDS011;64042;50.916;6.988;2023-01-05T06:07:40;3.00;;;0.90;;
75303;SDS011;64042;50.916;6.988;2023-01-05T06:10:05;3.40;;;1.63;;
75303;SDS011;64042;50.916;6.988;2023-01-05T06:12:31;1.77;;;0.73;;
75303;SDS011;64042;50.916;6.988;2023-01-05T06:14:56;2.87;;;1.10;;
75303;SDS011;64042;50.916;6.988;2023-01-05T06:17:21;1.43;;;1.17;;
75303;SDS011;64042;50.916;6.988;2023-01-05T06:19:47;2.50;;;1.00;;
75303;SDS011;64042;50.916;6.988;2023-01-05T06:22:12;1.20;;;1.10;;
75303;SDS011;64042;50.916;6.988;2023-01-05T06:24:37;4.30;;;0.70;;
75303;SDS011;64042;50.916;6.988;2023-01-05T06:27:02;1.10;;;0.80;;
75303;SDS011;64042;50.916;6.988;2023-01-05T06:29:28;2.53;;;0.50;;
75303;SDS011;64042;50.916;6.988;2023-01-05T06:31:53;1.93;;;1.03;;
75303;SDS011;64042;50.916;6.988;2023-01-05T06:34:18;1.63;;;0.65;;
75303;SDS011;64042;50.916;6.988;2023-01-05T06:36:44;1.73;;;1.08;;
75303;SDS011;64042;50.916;6.988;2023-01-05T06:39:09;1.73;;;0.70;;
75303;SDS011;64042;50.916;6.988;2023-01-05T06:41:35;2.22;;;1.48;;
75303;SDS011;64042;50.916;6.988;2023-01-05T06:44:00;1.55;;;1.30;;
75303;SDS011;64042;50.916;6.988;2023-01-05T06:46:25;1.75;;;1.23;;
75303;SDS011;64042;50.916;6.988;2023-01-05T06:48:51;1.25;;;1.02;;
75303;SDS011;64042;50.916;6.988;2023-01-05T06:51:16;2.58;;;1.08;;
75303;SDS011;64042;50.916;6.988;2023-01-05T06:53:42;2.20;;;0.85;;
75303;SDS011;64042;50.916;6.988;2023-01-05T06:56:07;2.25;;;0.82;;
75303;SDS011;64042;50.916;6.988;2023-01-05T06:58:32;2.30;;;1.73;;
75303;SDS011;64042;50.916;6.988;2023-01-05T07:00:57;2.00;;;1.70;;
75303;SDS011;64042;50.916;6.988;2023-01-05T07:03:23;1.50;;;1.17;;
75303;SDS011;64042;50.916;6.988;2023-01-05T07:05:48;0.97;;;0.63;;
75303;SDS011;64042;50.916;6.988;2023-01-05T07:08:13;1.30;;;1.20;;
75303;SDS011;64042;50.916;6.988;2023-01-05T07:10:39;1.23;;;1.00;;
75303;SDS011;64042;50.916;6.988;2023-01-05T07:13:04;0.90;;;0.88;;
75303;SDS011;64042;50.916;6.988;2023-01-05T07:15:29;1.87;;;1.07;;
75303;SDS011;64042;50.916;6.988;2023-01-05T07:17:54;1.52;;;0.68;;
75303;SDS011;64042;50.916;6.988;2023-01-05T07:20:20;0.93;;;0.77;;
75303;SDS011;64042;50.916;6.988;2023-01-05T07:22:45;4.03;;;1.52;;
75303;SDS011;64042;50.916;6.988;2023-01-05T07:25:10;1.10;;;0.60;;
75303;SDS011;64042;50.916;6.988;2023-01-05T07:27:36;1.17;;;0.82;;
75303;SDS011;64042;50.916;6.988;2023-01-05T07:30:01;0.80;;;0.73;;
75303;SDS011;64042;50.916;6.988;2023-01-05T07:32:27;0.68;;;0.43;;
75303;SDS011;64042;50.916;6.988;2023-01-05T07:34:52;1.25;;;0.80;;
75303;SDS011;64042;50.916;6.988;2023-01-05T07:37:17;1.33;;;1.23;;
75303;SDS011;64042;50.916;6.988;2023-01-05T07:39:43;1.95;;;1.02;;
75303;SDS011;64042;50.916;6.988;2023-01-05T07:42:08;1.40;;;1.00;;
75303;SDS011;64042;50.916;6.988;2023-01-05T07:44:33;2.30;;;0.90;;
75303;SDS011;64042;50.916;6.988;2023-01-05T07:46:58;1.30;;;0.50;;
75303;SDS011;64042;50.916;6.988;2023-01-05T07:49:25;1.85;;;1.67;;
75303;SDS011;64042;50.916;6.988;2023-01-05T07:51:51;1.40;;;0.90;;
75303;SDS011;64042;50.916;6.988;2023-01-05T07:54:16;1.33;;;1.13;;
75303;SDS011;64042;50.916;6.988;2023-01-05T07:56:41;1.00;;;0.70;;
75303;SDS011;64042;50.916;6.988;2023-01-05T07:59:06;2.63;;;1.10;;
75303;SDS011;64042;50.916;6.988;2023-01-05T08:01:32;1.85;;;1.13;;
75303;SDS011;64042;50.916;6.988;2023-01-05T08:03:57;2.80;;;0.93;;
75303;SDS011;64042;50.916;6.988;2023-01-05T08:06:22;1.15;;;0.98;;
75303;SDS011;64042;50.916;6.988;2023-01-05T08:08:48;2.72;;;1.55;;
75303;SDS011;64042;50.916;6.988;2023-01-05T08:11:14;3.05;;;1.50;;
75303;SDS011;64042;50.916;6.988;2023-01-05T08:13:41;1.75;;;1.02;;
75303;SDS011;64042;50.916;6.988;2023-01-05T08:16:27;1.65;;;1.08;;
75303;SDS011;64042;50.916;6.988;2023-01-05T08:18:53;3.42;;;1.35;;
75303;SDS011;64042;50.916;6.988;2023-01-05T08:21:19;2.03;;;1.27;;
75303;SDS011;64042;50.916;6.988;2023-01-05T08:23:44;3.08;;;1.27;;
75303;SDS011;64042;50.916;6.988;2023-01-05T08:26:15;2.78;;;0.80;;
75303;SDS011;64042;50.916;6.988;2023-01-05T08:28:42;2.83;;;0.90;;
75303;SDS011;64042;50.916;6.988;2023-01-05T08:31:10;1.80;;;1.15;;
75303;SDS011;64042;50.916;6.988;2023-01-05T08:33:50;1.58;;;1.10;;
75303;SDS011;64042;50.916;6.988;2023-01-05T08:36:16;1.92;;;1.08;;
75303;SDS011;64042;50.916;6.988;2023-01-05T08:38:43;1.95;;;1.67;;
75303;SDS011;64042;50.916;6.988;2023-01-05T08:41:16;2.08;;;1.17;;
75303;SDS011;64042;50.916;6.988;2023-01-05T08:43:42;3.33;;;1.52;;
75303;SDS011;64042;50.916;6.988;2023-01-05T08:46:08;3.03;;;1.13;;
75303;SDS011;64042;50.916;6.988;2023-01-05T08:48:33;2.53;;;1.02;;
75303;SDS011;64042;50.916;6.988;2023-01-05T08:51:01;1.60;;;1.13;;
75303;SDS011;64042;50.916;6.988;2023-01-05T08:53:31;2.60;;;1.42;;
75303;SDS011;64042;50.916;6.988;2023-01-05T08:55:57;2.25;;;1.33;;
75303;SDS011;64042;50.916;6.988;2023-01-05T08:58:23;2.90;;;1.20;;
75303;SDS011;64042;50.916;6.988;2023-01-05T09:00:48;2.03;;;0.80;;
75303;SDS011;64042;50.916;6.988;2023-01-05T09:03:14;1.60;;;1.50;;
75303;SDS011;64042;50.916;6.988;2023-01-05T09:05:39;2.30;;;0.80;;
75303;SDS011;64042;50.916;6.988;2023-01-05T09:08:04;2.67;;;1.73;;
75303;SDS011;64042;50.916;6.988;2023-01-05T09:10:29;1.67;;;1.03;;
75303;SDS011;64042;50.916;6.988;2023-01-05T09:12:55;2.83;;;1.13;;
75303;SDS011;64042;50.916;6.988;2023-01-05T09:15:20;2.10;;;0.90;;
75303;SDS011;64042;50.916;6.988;2023-01-05T09:17:45;1.90;;;1.00;;
75303;SDS011;64042;50.916;6.988;2023-01-05T09:20:10;2.53;;;1.30;;
75303;SDS011;64042;50.916;6.988;2023-01-05T09:22:36;3.60;;;1.17;;
75303;SDS011;64042;50.916;6.988;2023-01-05T09:25:02;1.70;;;0.95;;
75303;SDS011;64042;50.916;6.988;2023-01-05T09:27:28;1.42;;;0.85;;
75303;SDS011;64042;50.916;6.988;2023-01-05T09:29:53;1.90;;;1.25;;
75303;SDS011;64042;50.916;6.988;2023-01-05T09:32:18;1.40;;;1.00;;
75303;SDS011;64042;50.916;6.988;2023-01-05T09:34:44;2.17;;;1.15;;
75303;SDS011;64042;50.916;6.988;2023-01-05T09:37:09;2.77;;;1.23;;
75303;SDS011;64042;50.916;6.988;2023-01-05T09:39:34;2.17;;;0.90;;
75303;SDS011;64042;50.916;6.988;2023-01-05T09:42:01;4.65;;;1.27;;
75303;SDS011;64042;50.916;6.988;2023-01-05T09:44:31;1.88;;;1.17;;
75303;SDS011;64042;50.916;6.988;2023-01-05T09:47:03;1.33;;;0.77;;
75303;SDS011;64042;50.916;6.988;2023-01-05T09:49:42;2.05;;;0.82;;
75303;SDS011;64042;50.916;6.988;2023-01-05T09:52:08;2.80;;;1.08;;
75303;SDS011;64042;50.916;6.988;2023-01-05T09:54:35;1.52;;;0.75;;
75303;SDS011;64042;50.916;6.988;2023-01-05T09:57:02;1.65;;;0.82;;
75303;SDS011;64042;50.916;6.988;2023-01-05T09:59:30;2.10;;;1.25;;
75303;SDS011;64042;50.916;6.988;2023-01-05T10:01:58;2.35;;;1.80;;
75303;SDS011;64042;50.916;6.988;2023-01-05T10:04:29;3.67;;;1.20;;
75303;SDS011;64042;50.916;6.988;2023-01-05T10:07:00;2.75;;;1.30;;
75303;SDS011;64042;50.916;6.988;2023-01-05T10:09:36;2.38;;;0.93;;
75303;SDS011;64042;50.916;6.988;2023-01-05T10:12:18;2.97;;;1.67;;
75303;SDS011;64042;50.916;6.988;2023-01-05T10:15:06;2.38;;;1.65;;
75303;SDS011;64042;50.916;6.988;2023-01-05T10:17:35;2.28;;;1.40;;
75303;SDS011;64042;50.916;6.988;2023-01-05T10:20:08;2.63;;;1.42;;
75303;SDS011;64042;50.916;6.988;2023-01-05T10:22:47;2.42;;;1.02;;
75303;SDS011;64042;50.916;6.988;2023-01-05T10:25:22;4.20;;;1.58;;
75303;SDS011;64042;50.916;6.988;2023-01-05T10:27:56;2.20;;;1.38;;
75303;SDS011;64042;50.916;6.988;2023-01-05T10:36:32;1.75;;;1.48;;
75303;SDS011;64042;50.916;6.988;2023-01-05T10:39:24;4.72;;;1.27;;
75303;SDS011;64042;50.916;6.988;2023-01-05T10:42:21;2.92;;;1.33;;
75303;SDS011;64042;50.916;6.988;2023-01-05T10:44:54;4.25;;;1.45;;
75303;SDS011;64042;50.916;6.988;2023-01-05T10:47:20;3.53;;;1.33;;
75303;SDS011;64042;50.916;6.988;2023-01-05T10:49:47;3.97;;;1.58;;
75303;SDS011;64042;50.916;6.988;2023-01-05T10:52:14;3.40;;;1.65;;
75303;SDS011;64042;50.916;6.988;2023-01-05T10:54:44;3.20;;;1.73;;
75303;SDS011;64042;50.916;6.988;2023-01-05T11:02:23;3.05;;;1.17;;
75303;SDS011;64042;50.916;6.988;2023-01-05T11:04:49;4.97;;;1.15;;
75303;SDS011;64042;50.916;6.988;2023-01-05T11:07:15;5.93;;;1.98;;
75303;SDS011;64042;50.916;6.988;2023-01-05T11:09:40;4.30;;;1.90;;
75303;SDS011;64042;50.916;6.988;2023-01-05T11:12:13;3.10;;;1.63;;
75303;SDS011;64042;50.916;6.988;2023-01-05T11:14:42;3.60;;;1.55;;
75303;SDS011;64042;50.916;6.988;2023-01-05T11:17:12;3.65;;;1.63;;
75303;SDS011;64042;50.916;6.988;2023-01-05T11:19:43;3.97;;;2.13;;
75303;SDS011;64042;50.916;6.988;2023-01-05T11:25:12;3.58;;;2.25;;
75303;SDS011;64042;50.916;6.988;2023-01-05T11:28:08;5.63;;;1.70;;
75303;SDS011;64042;50.916;6.988;2023-01-05T11:30:57;4.65;;;2.00;;
75303;SDS011;64042;50.916;6.988;2023-01-05T11:33:25;5.55;;;1.67;;
75303;SDS011;64042;50.916;6.988;2023-01-05T11:35:52;6.45;;;2.05;;
75303;SDS011;64042;50.916;6.988;2023-01-05T11:38:28;3.15;;;1.55;;
75303;SDS011;64042;50.916;6.988;2023-01-05T11:40:57;9.18;;;2.25;;
75303;SDS011;64042;50.916;6.988;2023-01-05T11:43:24;4.30;;;2.03;;
75303;SDS011;64042;50.916;6.988;2023-01-05T11:45:52;4.93;;;1.83;;
75303;SDS011;64042;50.916;6.988;2023-01-05T11:48:21;3.35;;;1.80;;
75303;SDS011;64042;50.916;6.988;2023-01-05T11:50:49;4.65;;;1.65;;
75303;SDS011;64042;50.916;6.988;2023-01-05T11:53:23;4.07;;;1.63;;
75303;SDS011;64042;50.916;6.988;2023-01-05T11:58:32;5.13;;;1.95;;
75303;SDS011;64042;50.916;6.988;2023-01-05T12:14:34;4.03;;;1.35;;
75303;SDS011;64042;50.916;6.988;2023-01-05T12:17:13;5.55;;;3.42;;
75303;SDS011;64042;50.916;6.988;2023-01-05T12:25:26;6.07;;;1.80;;
75303;SDS011;64042;50.916;6.988;2023-01-05T12:28:07;5.13;;;2.03;;
75303;SDS011;64042;50.916;6.988;2023-01-05T12:30:53;5.80;;;1.52;;
75303;SDS011;64042;50.916;6.988;2023-01-05T12:36:24;4.57;;;1.90;;
75303;SDS011;64042;50.916;6.988;2023-01-05T12:47:11;5.97;;;1.92;;
75303;SDS011;64042;50.916;6.988;2023-01-05T12:52:12;4.82;;;1.50;;
75303;SDS011;64042;50.916;6.988;2023-01-05T12:57:32;5.35;;;2.22;;
75303;SDS011;64042;50.916;6.988;2023-01-05T13:00:08;4.38;;;1.48;;
75303;SDS011;64042;50.916;6.988;2023-01-05T13:02:43;5.03;;;1.48;;
75303;SDS011;64042;50.916;6.988;2023-01-05T13:08:04;3.92;;;1.63;;
75303;SDS011;64042;50.916;6.988;2023-01-05T13:10:48;5.25;;;2.20;;
75303;SDS011;64042;50.916;6.988;2023-01-05T13:13:18;4.65;;;2.15;;
75303;SDS011;64042;50.916;6.988;2023-01-05T13:16:03;6.38;;;1.88;;
75303;SDS011;64042;50.916;6.988;2023-01-05T13:18:31;5.28;;;1.75;;
75303;SDS011;64042;50.916;6.988;2023-01-05T13:21:01;6.00;;;2.33;;
75303;SDS011;64042;50.916;6.988;2023-01-05T13:23:29;4.55;;;1.98;;
75303;SDS011;64042;50.916;6.988;2023-01-05T13:26:01;3.30;;;1.77;;
75303;SDS011;64042;50.916;6.988;2023-01-05T13:28:29;4.28;;;2.08;;
75303;SDS011;64042;50.916;6.988;2023-01-05T13:36:40;3.35;;;1.75;;
75303;SDS011;64042;50.916;6.988;2023-01-05T13:42:41;3.67;;;1.63;;
75303;SDS011;64042;50.916;6.988;2023-01-05T13:51:28;5.95;;;1.90;;
75303;SDS011;64042;50.916;6.988;2023-01-05T13:53:56;10.05;;;2.15;;
75303;SDS011;64042;50.916;6.988;2023-01-05T13:56:23;5.35;;;1.75;;
75303;SDS011;64042;50.916;6.988;2023-01-05T13:58:51;7.38;;;2.22;;
75303;SDS011;64042;50.916;6.988;2023-01-05T14:01:32;5.22;;;2.90;;
75303;SDS011;64042;50.916;6.988;2023-01-05T14:03:59;4.72;;;2.17;;
75303;SDS011;64042;50.916;6.988;2023-01-05T14:06:32;5.03;;;2.13;;
75303;SDS011;64042;50.916;6.988;2023-01-05T14:11:30;5.40;;;2.63;;
75303;SDS011;64042;50.916;6.988;2023-01-05T14:14:03;6.20;;;2.58;;
75303;SDS011;64042;50.916;6.988;2023-01-05T14:19:15;3.55;;;2.13;;
75303;SDS011;64042;50.916;6.988;2023-01-05T14:24:33;5.10;;;1.80;;
75303;SDS011;64042;50.916;6.988;2023-01-05T14:27:02;7.15;;;1.98;;
75303;SDS011;64042;50.916;6.988;2023-01-05T14:32:09;6.47;;;2.60;;
75303;SDS011;64042;50.916;6.988;2023-01-05T14:34:36;7.40;;;2.67;;
75303;SDS011;64042;50.916;6.988;2023-01-05T14:37:14;5.43;;;2.40;;
75303;SDS011;64042;50.916;6.988;2023-01-05T14:39:47;5.82;;;2.40;;
75303;SDS011;64042;50.916;6.988;2023-01-05T14:44:48;6.00;;;1.80;;
75303;SDS011;64042;50.916;6.988;2023-01-05T14:47:15;5.00;;;2.55;;
75303;SDS011;64042;50.916;6.988;2023-01-05T14:49:50;6.50;;;2.55;;
75303;SDS011;64042;50.916;6.988;2023-01-05T14:52:51;6.07;;;2.83;;
75303;SDS011;64042;50.916;6.988;2023-01-05T14:55:24;23.58;;;8.38;;
75303;SDS011;64042;50.916;6.988;2023-01-05T14:57:57;162.05;;;35.88;;
75303;SDS011;64042;50.916;6.988;2023-01-05T15:00:29;122.93;;;28.00;;
75303;SDS011;64042;50.916;6.988;2023-01-05T15:03:22;129.70;;;29.08;;
75303;SDS011;64042;50.916;6.988;2023-01-05T15:16:39;113.00;;;29.13;;
75303;SDS011;64042;50.916;6.988;2023-01-05T15:19:27;110.90;;;28.75;;
75303;SDS011;64042;50.916;6.988;2023-01-05T15:30:36;103.65;;;25.75;;
75303;SDS011;64042;50.916;6.988;2023-01-05T15:33:32;87.15;;;25.55;;
75303;SDS011;64042;50.916;6.988;2023-01-05T15:36:03;94.40;;;26.27;;
75303;SDS011;64042;50.916;6.988;2023-01-05T15:38:29;85.03;;;25.58;;
75303;SDS011;64042;50.916;6.988;2023-01-05T15:41:08;87.32;;;26.00;;
75303;SDS011;64042;50.916;6.988;2023-01-05T15:43:35;93.13;;;25.95;;
75303;SDS011;64042;50.916;6.988;2023-01-05T15:46:01;85.22;;;22.33;;
75303;SDS011;64042;50.916;6.988;2023-01-05T15:48:39;83.80;;;23.48;;
75303;SDS011;64042;50.916;6.988;2023-01-05T15:51:05;87.32;;;23.08;;
75303;SDS011;64042;50.916;6.988;2023-01-05T15:53:32;75.95;;;23.00;;
75303;SDS011;64042;50.916;6.988;2023-01-05T15:56:01;70.90;;;21.90;;
75303;SDS011;64042;50.916;6.988;2023-01-05T15:58:28;78.38;;;22.60;;
75303;SDS011;64042;50.916;6.988;2023-01-05T16:01:09;132.30;;;48.13;;
75303;SDS011;64042;50.916;6.988;2023-01-05T16:03:36;108.35;;;38.97;;
75303;SDS011;64042;50.916;6.988;2023-01-05T16:06:10;97.75;;;36.38;;
75303;SDS011;64042;50.916;6.988;2023-01-05T16:08:41;89.85;;;34.75;;
75303;SDS011;64042;50.916;6.988;2023-01-05T16:13:36;92.90;;;31.88;;
75303;SDS011;64042;50.916;6.988;2023-01-05T16:16:09;99.20;;;33.42;;
75303;SDS011;64042;50.916;6.988;2023-01-05T16:18:49;87.10;;;33.58;;
75303;SDS011;64042;50.916;6.988;2023-01-05T16:24:21;81.93;;;32.13;;
75303;SDS011;64042;50.916;6.988;2023-01-05T16:26:50;78.85;;;29.48;;
75303;SDS011;64042;50.916;6.988;2023-01-05T16:29:35;84.75;;;30.83;;
75303;SDS011;64042;50.916;6.988;2023-01-05T16:32:02;75.68;;;28.33;;
75303;SDS011;64042;50.916;6.988;2023-01-05T16:34:29;84.22;;;30.00;;
75303;SDS011;64042;50.916;6.988;2023-01-05T16:36:59;80.63;;;27.58;;
75303;SDS011;64042;50.916;6.988;2023-01-05T16:39:25;77.22;;;28.58;;
75303;SDS011;64042;50.916;6.988;2023-01-05T16:47:36;71.83;;;25.53;;
75303;SDS011;64042;50.916;6.988;2023-01-05T16:53:02;70.85;;;26.58;;
75303;SDS011;64042;50.916;6.988;2023-01-05T16:55:38;64.43;;;25.52;;
75303;SDS011;64042;50.916;6.988;2023-01-05T16:58:05;70.07;;;24.70;;
75303;SDS011;64042;50.916;6.988;2023-01-05T17:03:40;65.72;;;24.50;;
75303;SDS011;64042;50.916;6.988;2023-01-05T17:06:28;65.18;;;25.42;;
75303;SDS011;64042;50.916;6.988;2023-01-05T17:08:56;67.25;;;23.80;;
75303;SDS011;64042;50.916;6.988;2023-01-05T17:11:24;62.60;;;23.45;;
75303;SDS011;64042;50.916;6.988;2023-01-05T17:13:52;58.80;;;24.17;;
75303;SDS011;64042;50.916;6.988;2023-01-05T17:16:18;61.85;;;23.90;;
75303;SDS011;64042;50.916;6.988;2023-01-05T17:18:44;56.80;;;23.63;;
75303;SDS011;64042;50.916;6.988;2023-01-05T17:21:12;61.00;;;22.63;;